Damariscotta, Maine
Current Conditions -  °F | °C
As of 10:53 AM on Saturday 22 Nov 2014 (Local Time) from KIWI Reporting Station
Overcast Overcast  
Wind Chill: 20°   Ceiling: 10000
Heat Index: 30°   Visibility: 10mi
Dew Point: 15°   Wind: 14mph
Humidity: 54%   Direction: 210°SSW
Pressure: 30.23"   Gusts: NA
Location:  44.03°N, 69.52°W
Report Text: KIWI 221553Z AUTO 21012KT 10SM OVC100 M01/M09 A3023 RMK AO2 SLP236 T10111094
Loading
Personal Weather Stations






























Interactive Weather Map New forecast layout! Learn more

10-Day Weather Forecast

Advertisements
Track Severe Weather on mobile